createdAt,value
2019-06-26T00:01:10.342Z,7.10
2019-06-26T00:03:42.710Z,6.97
2019-06-26T00:06:14.920Z,6.70
2019-06-26T00:08:47.350Z,7.73
2019-06-26T00:11:19.389Z,6.47
2019-06-26T00:13:51.770Z,8.50
2019-06-26T00:16:24.111Z,6.92
2019-06-26T00:18:56.511Z,7.58
2019-06-26T00:21:29.869Z,6.97
2019-06-26T00:24:02.358Z,7.50
2019-06-26T00:26:34.842Z,7.85
2019-06-26T00:29:07.288Z,7.90
2019-06-26T00:31:39.540Z,8.33
2019-06-26T00:34:12.089Z,7.58
2019-06-26T00:36:44.327Z,7.83
2019-06-26T00:39:16.478Z,7.30
2019-06-26T00:41:48.733Z,7.40
2019-06-26T00:44:21.145Z,7.45
2019-06-26T00:46:53.437Z,7.22
2019-06-26T00:49:25.872Z,7.58
2019-06-26T00:51:58.386Z,7.20
2019-06-26T00:54:30.690Z,7.35
2019-06-26T00:57:03.103Z,6.97
2019-06-26T00:59:35.697Z,6.90
2019-06-26T01:02:08.362Z,7.28
2019-06-26T01:04:42.990Z,6.25
2019-06-26T01:07:15.422Z,7.00
2019-06-26T01:09:47.897Z,6.90
2019-06-26T01:12:20.502Z,6.87
2019-06-26T01:14:52.980Z,6.90
2019-06-26T01:17:25.779Z,6.78
2019-06-26T01:19:58.190Z,6.33
2019-06-26T01:22:30.660Z,6.50
2019-06-26T01:25:02.937Z,5.90
2019-06-26T01:27:37.008Z,6.62
2019-06-26T01:30:09.621Z,6.55
2019-06-26T01:32:42.357Z,7.03
2019-06-26T01:35:14.716Z,7.55
2019-06-26T01:37:46.853Z,6.75
2019-06-26T01:40:20.589Z,7.37
2019-06-26T01:42:53.162Z,6.92
2019-06-26T01:45:25.692Z,7.20
2019-06-26T01:47:57.991Z,6.95
2019-06-26T01:50:30.492Z,7.30
2019-06-26T01:53:02.685Z,7.60
2019-06-26T01:55:34.832Z,6.37
2019-06-26T01:58:07.656Z,7.62
2019-06-26T02:00:39.999Z,7.72
2019-06-26T02:03:12.327Z,7.58
2019-06-26T02:05:44.492Z,7.40
2019-06-26T02:08:16.881Z,7.73
2019-06-26T02:10:49.217Z,8.13
2019-06-26T02:13:21.454Z,8.28
2019-06-26T02:15:53.891Z,7.50
2019-06-26T02:18:48.642Z,7.97
2019-06-26T02:21:21.397Z,8.03
2019-06-26T02:23:53.890Z,7.70
2019-06-26T02:26:26.255Z,8.30
2019-06-26T02:28:58.839Z,8.10
2019-06-26T02:31:31.398Z,8.43
2019-06-26T02:34:03.955Z,8.10
2019-06-26T02:36:36.341Z,9.30
2019-06-26T02:39:09.762Z,8.00
2019-06-26T02:41:42.359Z,7.80
2019-06-26T02:44:14.587Z,8.35
2019-06-26T02:46:47.129Z,8.73
2019-06-26T02:49:19.829Z,8.65
2019-06-26T02:51:51.679Z,8.43
2019-06-26T02:54:23.938Z,8.73
2019-06-26T02:56:56.587Z,8.47
2019-06-26T02:59:28.977Z,7.97
2019-06-26T03:02:00.914Z,8.75
2019-06-26T03:04:32.899Z,7.95
2019-06-26T03:07:05.102Z,7.80
2019-06-26T03:09:37.390Z,7.73
2019-06-26T03:12:09.663Z,7.95
2019-06-26T03:14:41.777Z,7.47
2019-06-26T03:17:13.782Z,8.05
2019-06-26T03:19:47.095Z,7.17
2019-06-26T03:22:19.473Z,7.75
2019-06-26T03:24:51.693Z,6.42
2019-06-26T03:27:24.010Z,6.53
2019-06-26T03:29:59.907Z,6.28
2019-06-26T03:32:32.181Z,6.65
2019-06-26T03:35:04.512Z,6.97
2019-06-26T03:37:36.707Z,7.47
2019-06-26T03:40:09.245Z,8.10
2019-06-26T03:42:41.500Z,7.60
2019-06-26T03:45:25.103Z,7.00
2019-06-26T03:47:48.594Z,7.55
2019-06-26T03:50:20.959Z,7.37
2019-06-26T03:52:53.164Z,7.08
2019-06-26T03:55:25.608Z,7.37
2019-06-26T03:57:57.849Z,7.67
2019-06-26T04:00:40.115Z,7.85
2019-06-26T04:03:12.827Z,7.40
2019-06-26T04:05:45.038Z,6.97
2019-06-26T04:08:16.941Z,7.33
2019-06-26T04:10:49.264Z,6.95
2019-06-26T04:13:21.620Z,7.47
2019-06-26T04:15:54.051Z,7.65
2019-06-26T04:18:26.387Z,7.15
2019-06-26T04:20:58.594Z,6.92
2019-06-26T04:23:31.021Z,7.17
2019-06-26T04:26:02.911Z,6.42
2019-06-26T04:28:35.133Z,6.67
2019-06-26T04:31:07.182Z,7.13
2019-06-26T04:33:39.587Z,7.40
2019-06-26T04:36:13.017Z,7.30
2019-06-26T04:38:45.471Z,7.47
2019-06-26T04:41:17.667Z,7.50
2019-06-26T04:43:49.803Z,7.27
2019-06-26T04:46:21.945Z,7.80
2019-06-26T04:48:54.227Z,7.93
2019-06-26T04:51:26.303Z,7.67
2019-06-26T04:53:58.188Z,7.87
2019-06-26T04:56:30.859Z,7.17
2019-06-26T04:59:03.018Z,8.58
2019-06-26T05:01:35.290Z,7.83
2019-06-26T05:04:07.439Z,8.88
2019-06-26T05:06:39.749Z,8.70
2019-06-26T05:09:11.752Z,8.45
2019-06-26T05:11:43.972Z,8.63
2019-06-26T05:14:16.178Z,8.53
2019-06-26T05:16:48.290Z,8.25
2019-06-26T05:19:20.709Z,7.53
2019-06-26T05:21:52.934Z,7.65
2019-06-26T05:24:25.217Z,8.55
2019-06-26T05:26:57.289Z,7.95
2019-06-26T05:29:29.412Z,7.90
2019-06-26T05:32:01.722Z,7.53
2019-06-26T05:34:34.066Z,6.87
2019-06-26T05:37:06.223Z,7.78
2019-06-26T05:39:38.354Z,7.40
2019-06-26T05:42:10.487Z,7.63
2019-06-26T05:44:42.590Z,7.57
2019-06-26T05:47:17.954Z,6.90
2019-06-26T05:49:51.418Z,8.05
2019-06-26T05:52:23.659Z,7.92
2019-06-26T05:54:55.779Z,7.60
2019-06-26T05:57:27.950Z,7.07
2019-06-26T06:00:00.077Z,7.85
2019-06-26T06:02:32.060Z,7.37
2019-06-26T06:05:04.548Z,7.73
2019-06-26T06:07:36.759Z,7.58
2019-06-26T06:10:09.279Z,8.05
2019-06-26T06:12:41.464Z,6.97
2019-06-26T06:15:14.207Z,7.60
2019-06-26T06:17:46.368Z,8.20
2019-06-26T06:20:24.617Z,7.80
2019-06-26T06:22:56.693Z,7.90
2019-06-26T06:25:28.791Z,7.70
2019-06-26T06:28:01.113Z,8.40
2019-06-26T06:30:33.404Z,8.68
2019-06-26T06:33:05.431Z,8.05
2019-06-26T06:35:37.786Z,8.25
2019-06-26T06:38:10.066Z,8.90
2019-06-26T06:40:43.264Z,8.05
2019-06-26T06:43:15.855Z,8.50
2019-06-26T06:45:48.077Z,8.68
2019-06-26T06:48:20.410Z,7.95
2019-06-26T06:50:52.885Z,8.03
2019-06-26T06:53:24.927Z,8.18
2019-06-26T06:55:56.991Z,8.40
2019-06-26T06:58:30.221Z,7.58
2019-06-26T07:01:02.614Z,8.30
2019-06-26T07:03:34.761Z,7.65
2019-06-26T07:06:07.183Z,7.42
2019-06-26T07:08:39.322Z,7.40
2019-06-26T07:11:11.487Z,7.72
2019-06-26T07:13:43.758Z,7.33
2019-06-26T07:16:16.907Z,7.50
2019-06-26T07:18:49.177Z,7.70
2019-06-26T07:21:21.492Z,7.65
2019-06-26T07:23:53.577Z,7.03
2019-06-26T07:26:25.753Z,7.30
2019-06-26T07:28:57.985Z,7.72
2019-06-26T07:31:31.327Z,8.45
2019-06-26T07:34:03.585Z,8.20
2019-06-26T07:36:35.979Z,7.50
2019-06-26T07:39:09.255Z,7.65
2019-06-26T07:41:41.957Z,8.10
2019-06-26T07:44:14.242Z,8.33
2019-06-26T07:46:46.559Z,8.83
2019-06-26T07:49:18.655Z,8.28
2019-06-26T07:51:50.858Z,8.43
2019-06-26T07:54:23.367Z,7.72
2019-06-26T07:56:55.852Z,8.75
2019-06-26T07:59:29.126Z,8.65
2019-06-26T08:02:01.358Z,7.90
2019-06-26T08:04:33.496Z,8.45
2019-06-26T08:07:05.701Z,9.38
2019-06-26T08:09:37.919Z,8.30
2019-06-26T08:12:10.207Z,8.35
2019-06-26T08:14:42.833Z,8.80
2019-06-26T08:17:14.888Z,8.23
2019-06-26T08:19:47.202Z,7.53
2019-06-26T08:22:19.544Z,8.23
2019-06-26T08:24:51.542Z,7.67
2019-06-26T08:27:23.533Z,7.77
2019-06-26T08:29:55.835Z,8.90
2019-06-26T08:32:28.268Z,7.22
2019-06-26T08:35:00.350Z,7.78
2019-06-26T08:37:32.874Z,7.20
2019-06-26T08:40:05.290Z,7.20
2019-06-26T08:42:37.629Z,6.97
2019-06-26T08:45:10.061Z,7.65
2019-06-26T08:47:42.203Z,6.95
2019-06-26T08:50:15.058Z,8.50
2019-06-26T08:55:19.160Z,7.00
2019-06-26T08:57:51.733Z,7.92
2019-06-26T09:00:24.393Z,7.35
2019-06-26T09:02:56.596Z,7.62
2019-06-26T09:05:28.566Z,7.45
2019-06-26T09:08:00.995Z,7.73
2019-06-26T09:10:33.163Z,6.95
2019-06-26T09:13:05.437Z,7.63
2019-06-26T09:15:37.534Z,7.58
2019-06-26T09:18:09.617Z,6.97
2019-06-26T09:20:42.024Z,6.55
2019-06-26T09:23:14.306Z,7.20
2019-06-26T09:25:46.614Z,6.62
2019-06-26T09:28:18.707Z,7.42
2019-06-26T09:30:50.945Z,5.97
2019-06-26T09:33:23.290Z,6.45
2019-06-26T09:35:55.752Z,6.03
2019-06-26T09:38:28.103Z,7.12
2019-06-26T09:41:00.302Z,6.97
2019-06-26T09:43:32.544Z,6.47
2019-06-26T09:46:04.843Z,6.70
2019-06-26T09:48:52.181Z,6.75
2019-06-26T09:51:13.892Z,6.72
2019-06-26T09:53:47.847Z,6.75
2019-06-26T09:56:20.138Z,7.03
2019-06-26T09:58:52.522Z,7.70
2019-06-26T10:01:25.238Z,6.70
2019-06-26T10:06:28.220Z,6.33
2019-06-26T10:09:00.492Z,6.75
2019-06-26T10:11:34.343Z,6.58
2019-06-26T10:14:06.888Z,7.20
2019-06-26T10:16:38.877Z,7.45
2019-06-26T10:19:11.270Z,7.03
2019-06-26T10:21:43.275Z,6.97
2019-06-26T10:24:15.541Z,6.12
2019-06-26T10:26:47.892Z,6.85
2019-06-26T10:29:20.240Z,6.62
2019-06-26T10:31:52.372Z,6.40
2019-06-26T10:34:24.477Z,6.90
2019-06-26T10:36:56.997Z,6.20
2019-06-26T10:39:29.057Z,6.65
2019-06-26T10:42:01.316Z,6.97
2019-06-26T10:44:33.588Z,6.67
2019-06-26T10:47:06.152Z,6.78
2019-06-26T10:49:38.411Z,6.83
2019-06-26T10:52:10.575Z,6.65
2019-06-26T10:54:44.500Z,6.78
2019-06-26T10:57:16.713Z,6.90
2019-06-26T10:59:49.118Z,6.75
2019-06-26T11:02:21.339Z,7.05
2019-06-26T11:04:53.670Z,6.60
2019-06-26T11:07:26.127Z,6.40
2019-06-26T11:09:58.468Z,6.42
2019-06-26T11:12:31.324Z,6.80
2019-06-26T11:15:03.792Z,6.78
2019-06-26T11:17:36.305Z,7.10
2019-06-26T11:20:10.559Z,6.85
2019-06-26T11:22:42.750Z,6.30
2019-06-26T11:25:15.190Z,6.12
2019-06-26T11:27:47.923Z,6.53
2019-06-26T11:32:51.735Z,5.87
2019-06-26T11:35:24.199Z,6.25
2019-06-26T11:37:56.600Z,5.87
2019-06-26T11:40:29.171Z,5.75
2019-06-26T11:43:01.551Z,5.62
2019-06-26T11:45:33.752Z,5.85
2019-06-26T11:48:06.194Z,5.72
2019-06-26T11:50:38.657Z,5.78
2019-06-26T11:53:11.232Z,5.45
2019-06-26T11:58:15.197Z,5.97
2019-06-26T12:00:47.438Z,6.33
2019-06-26T12:03:19.359Z,5.80
2019-06-26T12:05:52.064Z,5.70
2019-06-26T12:10:54.928Z,5.70
2019-06-26T12:13:26.978Z,5.92
2019-06-26T12:15:59.484Z,5.83
2019-06-26T12:18:31.969Z,5.40
2019-06-26T12:21:04.334Z,5.47
2019-06-26T12:23:36.677Z,5.30
2019-06-26T12:26:08.852Z,5.47
2019-06-26T12:28:41.521Z,5.50
2019-06-26T12:31:13.682Z,6.00
2019-06-26T12:33:45.894Z,5.62
2019-06-26T12:36:18.130Z,5.70
2019-06-26T12:38:50.730Z,5.90
2019-06-26T12:41:24.407Z,5.22
2019-06-26T12:43:56.594Z,5.75
2019-06-26T12:46:29.043Z,4.97
2019-06-26T12:49:01.907Z,5.45
2019-06-26T12:51:34.541Z,5.20
2019-06-26T12:56:37.381Z,5.58
2019-06-26T12:59:09.373Z,5.40
2019-06-26T13:01:41.726Z,5.45
2019-06-26T13:04:14.141Z,4.67
2019-06-26T13:06:46.392Z,5.12
2019-06-26T13:09:18.869Z,5.17
2019-06-26T13:14:21.630Z,5.10
2019-06-26T13:16:53.918Z,5.20
2019-06-26T13:19:26.056Z,5.25
2019-06-26T13:22:00.004Z,5.92
2019-06-26T13:24:32.120Z,5.22
2019-06-26T13:27:04.499Z,5.28
2019-06-26T13:29:37.143Z,5.47
2019-06-26T13:34:40.152Z,5.12
2019-06-26T13:37:12.504Z,4.83
2019-06-26T13:39:44.953Z,5.30
2019-06-26T13:42:18.501Z,4.87
2019-06-26T13:47:21.986Z,5.37
2019-06-26T13:49:54.194Z,5.33
2019-06-26T13:52:26.409Z,5.12
2019-06-26T13:54:58.599Z,5.78
2019-06-26T13:57:31.763Z,5.72
2019-06-26T14:00:04.791Z,5.53
2019-06-26T14:02:37.369Z,5.08
2019-06-26T14:05:09.918Z,5.22
2019-06-26T14:07:42.178Z,5.78
2019-06-26T14:10:14.857Z,5.70
2019-06-26T14:15:18.327Z,5.45
2019-06-26T14:17:50.492Z,5.30
2019-06-26T14:20:23.253Z,5.62
2019-06-26T14:22:55.655Z,5.37
2019-06-26T14:25:27.947Z,5.95
2019-06-26T14:28:00.242Z,6.05
2019-06-26T14:30:32.439Z,6.45
2019-06-26T14:33:04.607Z,6.00
2019-06-26T14:35:36.816Z,5.95
2019-06-26T14:38:08.941Z,5.60
2019-06-26T14:40:41.437Z,5.25
2019-06-26T14:43:13.503Z,6.20
2019-06-26T14:45:45.835Z,6.08
2019-06-26T14:48:18.074Z,5.78
2019-06-26T14:50:50.323Z,5.75
2019-06-26T14:53:22.661Z,5.85
2019-06-26T14:55:55.129Z,6.33
2019-06-26T14:58:27.475Z,6.10
2019-06-26T15:00:59.966Z,6.40
2019-06-26T15:03:32.154Z,5.75
2019-06-26T15:06:15.780Z,6.60
2019-06-26T15:08:38.156Z,6.17
2019-06-26T15:11:10.339Z,6.42
2019-06-26T15:13:42.378Z,6.45
2019-06-26T15:16:14.860Z,6.30
2019-06-26T15:18:47.084Z,7.12
2019-06-26T15:21:19.351Z,6.50
2019-06-26T15:23:51.681Z,6.10
2019-06-26T15:26:24.021Z,6.33
2019-06-26T15:28:56.432Z,6.72
2019-06-26T15:31:28.669Z,6.53
2019-06-26T15:34:00.846Z,6.45
2019-06-26T15:36:33.325Z,5.90
2019-06-26T15:39:06.211Z,6.50
2019-06-26T15:41:39.485Z,6.30
2019-06-26T15:44:12.137Z,6.87
2019-06-26T15:46:44.712Z,6.53
2019-06-26T15:49:16.910Z,7.08
2019-06-26T15:51:49.413Z,6.53
2019-06-26T15:54:21.611Z,7.28
2019-06-26T15:56:53.921Z,6.87
2019-06-26T15:59:26.179Z,6.60
2019-06-26T16:01:58.941Z,6.47
2019-06-26T16:07:02.056Z,6.67
2019-06-26T16:09:35.185Z,6.87
2019-06-26T16:12:07.336Z,6.47
2019-06-26T16:14:40.066Z,6.75
2019-06-26T16:19:49.771Z,7.17
2019-06-26T16:22:31.537Z,6.58
2019-06-26T16:24:56.178Z,7.42
2019-06-26T16:27:28.658Z,6.72
2019-06-26T16:30:00.830Z,6.78
2019-06-26T16:32:33.490Z,6.37
2019-06-26T16:35:05.885Z,6.30
2019-06-26T16:37:39.607Z,6.80
2019-06-26T16:40:12.409Z,6.35
2019-06-26T16:45:15.769Z,6.92
2019-06-26T16:50:19.698Z,6.67
2019-06-26T16:52:51.694Z,6.50
2019-06-26T16:55:23.849Z,7.23
2019-06-26T16:57:56.013Z,6.78
2019-06-26T17:00:28.322Z,7.47
2019-06-26T17:03:00.411Z,6.67
2019-06-26T17:05:32.383Z,8.10
2019-06-26T17:08:04.626Z,7.50
2019-06-26T17:10:36.610Z,7.17
2019-06-26T17:13:09.018Z,6.57
2019-06-26T17:15:41.203Z,6.60
2019-06-26T17:18:13.273Z,6.78
2019-06-26T17:20:45.325Z,7.15
2019-06-26T17:23:17.280Z,7.00
2019-06-26T17:25:49.436Z,7.20
2019-06-26T17:28:21.508Z,7.28
2019-06-26T17:30:53.518Z,8.38
2019-06-26T17:33:26.118Z,7.27
2019-06-26T17:35:58.013Z,7.20
2019-06-26T17:38:30.097Z,7.00
2019-06-26T17:41:02.610Z,7.07
2019-06-26T17:43:34.814Z,7.00
2019-06-26T17:46:07.313Z,6.83
2019-06-26T17:48:39.552Z,7.22
2019-06-26T17:51:11.644Z,6.78
2019-06-26T17:53:43.808Z,7.13
2019-06-26T17:56:15.818Z,7.80
2019-06-26T17:58:48.123Z,7.50
2019-06-26T18:01:20.212Z,6.60
2019-06-26T18:03:52.199Z,6.50
2019-06-26T18:06:24.132Z,6.70
2019-06-26T18:08:56.395Z,7.47
2019-06-26T18:11:29.371Z,6.97
2019-06-26T18:14:01.448Z,7.53
2019-06-26T18:16:33.658Z,7.17
2019-06-26T18:19:06.774Z,6.70
2019-06-26T18:21:38.947Z,7.25
2019-06-26T18:24:11.226Z,7.62
2019-06-26T18:26:43.473Z,7.42
2019-06-26T18:29:16.666Z,8.58
2019-06-26T18:31:48.866Z,6.97
2019-06-26T18:34:21.043Z,7.10
2019-06-26T18:36:53.016Z,7.55
2019-06-26T18:39:24.895Z,8.03
2019-06-26T18:41:57.154Z,6.97
2019-06-26T18:44:29.643Z,7.15
2019-06-26T18:47:01.860Z,7.62
2019-06-26T18:49:34.857Z,8.65
2019-06-26T18:54:39.147Z,8.53
2019-06-26T18:57:11.394Z,10.32
2019-06-26T18:59:43.754Z,9.28
2019-06-26T19:02:15.910Z,9.23
2019-06-26T19:04:48.009Z,10.05
2019-06-26T19:07:19.964Z,9.53
2019-06-26T19:09:51.909Z,9.50
2019-06-26T19:12:24.338Z,9.13
2019-06-26T19:14:56.406Z,8.93
2019-06-26T19:17:28.774Z,9.50
2019-06-26T19:20:00.920Z,9.63
2019-06-26T19:22:32.831Z,10.00
2019-06-26T19:25:05.153Z,9.73
2019-06-26T19:27:37.297Z,9.55
2019-06-26T19:30:11.202Z,8.98
2019-06-26T19:32:43.585Z,10.40
2019-06-26T19:35:19.526Z,9.28
2019-06-26T19:37:51.687Z,8.88
2019-06-26T19:40:24.427Z,9.03
2019-06-26T19:45:31.361Z,8.15
2019-06-26T19:48:03.341Z,8.45
2019-06-26T19:50:35.508Z,9.05
2019-06-26T19:53:07.779Z,8.93
2019-06-26T19:55:39.982Z,9.20
2019-06-26T19:58:11.974Z,8.95
2019-06-26T20:00:44.950Z,8.97
2019-06-26T20:04:09.492Z,9.03
2019-06-26T20:07:23.889Z,9.25
2019-06-26T20:09:56.051Z,9.90
2019-06-26T20:12:27.624Z,10.85
2019-06-26T20:14:59.184Z,10.58
2019-06-26T20:17:30.648Z,11.63
2019-06-26T20:20:02.091Z,12.07
2019-06-26T20:22:33.862Z,11.65
2019-06-26T20:25:05.358Z,11.28
2019-06-26T20:27:38.038Z,10.35
2019-06-26T20:30:10.303Z,11.57
2019-06-26T20:32:42.980Z,11.70
2019-06-26T20:35:14.630Z,11.65
2019-06-26T20:37:46.130Z,11.43
2019-06-26T20:40:17.798Z,10.85
2019-06-26T20:42:49.392Z,10.43
2019-06-26T20:45:21.591Z,11.20
2019-06-26T20:47:53.098Z,12.82
2019-06-26T20:50:24.596Z,13.20
2019-06-26T20:52:56.312Z,12.23
2019-06-26T20:55:27.674Z,12.93
2019-06-26T20:57:59.125Z,12.40
2019-06-26T21:00:31.680Z,12.28
2019-06-26T21:03:03.301Z,11.43
2019-06-26T21:05:35.019Z,12.37
2019-06-26T21:08:06.533Z,12.13
2019-06-26T21:10:37.971Z,12.45
2019-06-26T21:13:09.450Z,12.05
2019-06-26T21:15:40.916Z,12.35
2019-06-26T21:18:12.639Z,12.10
2019-06-26T21:20:44.085Z,11.55
2019-06-26T21:23:18.742Z,11.12
2019-06-26T21:25:49.014Z,11.97
2019-06-26T21:28:20.462Z,10.82
2019-06-26T21:30:51.865Z,11.33
2019-06-26T21:33:23.392Z,11.68
2019-06-26T21:35:54.965Z,12.53
2019-06-26T21:38:27.818Z,12.53
2019-06-26T21:43:30.894Z,12.03
2019-06-26T21:46:02.505Z,12.53
2019-06-26T21:48:35.307Z,11.63
2019-06-26T21:51:06.864Z,12.23
2019-06-26T21:53:38.606Z,11.45
2019-06-26T21:56:28.072Z,11.55
2019-06-26T21:59:17.927Z,12.68
2019-06-26T22:02:07.567Z,11.60
2019-06-26T22:04:56.286Z,11.30
2019-06-26T22:07:46.229Z,11.03
2019-06-26T22:10:19.719Z,10.65
2019-06-26T22:12:51.599Z,10.80
2019-06-26T22:15:23.609Z,10.83
2019-06-26T22:17:55.778Z,10.68
2019-06-26T22:20:27.584Z,10.30
2019-06-26T22:22:59.600Z,10.95
2019-06-26T22:25:31.943Z,11.10
2019-06-26T22:28:03.787Z,10.82
2019-06-26T22:30:35.480Z,10.95
2019-06-26T22:33:07.430Z,10.28
2019-06-26T22:35:39.248Z,11.70
2019-06-26T22:38:11.248Z,10.85
2019-06-26T22:40:44.472Z,11.63
2019-06-26T22:43:16.747Z,13.15
2019-06-26T22:45:48.777Z,13.03
2019-06-26T22:48:21.012Z,12.97
2019-06-26T22:50:53.180Z,12.45
2019-06-26T22:53:25.221Z,13.45
2019-06-26T22:56:07.178Z,12.77
2019-06-26T22:58:31.068Z,11.68
2019-06-26T23:01:03.741Z,12.20
2019-06-26T23:03:35.928Z,12.70
2019-06-26T23:06:08.390Z,11.70
2019-06-26T23:08:40.733Z,11.63
2019-06-26T23:11:14.082Z,11.35
2019-06-26T23:13:46.304Z,10.70
2019-06-26T23:16:18.598Z,11.65
2019-06-26T23:18:50.877Z,11.70
2019-06-26T23:21:23.149Z,11.17
2019-06-26T23:23:55.439Z,12.45
2019-06-26T23:26:27.528Z,12.47
2019-06-26T23:28:59.968Z,11.93
2019-06-26T23:31:32.141Z,12.63
2019-06-26T23:34:04.803Z,12.00
2019-06-26T23:36:37.251Z,12.07
2019-06-26T23:39:09.580Z,11.78
2019-06-26T23:41:41.903Z,12.55
2019-06-26T23:44:14.290Z,12.18
2019-06-26T23:46:46.560Z,12.85
2019-06-26T23:49:19.334Z,12.10
2019-06-26T23:51:51.649Z,12.45
2019-06-26T23:54:25.156Z,11.75
2019-06-26T23:56:57.601Z,11.88
2019-06-26T23:59:30.001Z,12.05
